Time;durP1;ratioP1;P1;durP2;ratioP2;P2;SDS_P1;SDS_P2;PMS_P1;PMS_P2;Temp;Humidity;BMP_temperature;BMP_pressure;BME280_temperature;BME280_humidity;BME280_pressure;Samples;Min_cycle;Max_cycle;Signal;HPM_P1;HPM_P2
2023/04/22 00:01:01;;;;;;;1.70;1.60;;;10.00;99.90;;;;;;5002500;28;20026;-77
2023/04/22 00:03:27;;;;;;;2.05;1.60;;;9.90;99.90;;;;;;5003071;28;20029;-77
2023/04/22 00:05:53;;;;;;;3.03;1.58;;;10.00;99.90;;;;;;5002837;28;20034;-77
2023/04/22 00:08:19;;;;;;;1.92;1.83;;;10.00;99.90;;;;;;5003242;28;20022;-78
2023/04/22 00:10:44;;;;;;;1.63;1.50;;;10.00;99.90;;;;;;5002118;28;20105;-77
2023/04/22 00:13:10;;;;;;;3.15;1.80;;;9.90;99.90;;;;;;5002202;28;20030;-76
2023/04/22 00:15:36;;;;;;;2.65;1.80;;;9.70;99.90;;;;;;5002514;28;20030;-76
2023/04/22 00:18:01;;;;;;;4.82;1.67;;;9.70;99.90;;;;;;5003340;28;20463;-77
2023/04/22 00:20:28;;;;;;;2.40;1.75;;;9.60;99.90;;;;;;5005082;28;20042;-76
2023/04/22 00:22:53;;;;;;;1.70;1.60;;;9.70;99.90;;;;;;5006306;28;20062;-77
2023/04/22 00:25:19;;;;;;;2.05;1.60;;;9.70;99.90;;;;;;5006303;28;20034;-76
2023/04/22 00:27:45;;;;;;;2.10;1.40;;;9.70;99.90;;;;;;5006707;28;20034;-76
2023/04/22 00:30:11;;;;;;;2.83;1.80;;;9.80;99.90;;;;;;5006412;28;20053;-77
2023/04/22 00:32:37;;;;;;;2.78;1.40;;;9.70;99.90;;;;;;5006575;28;20035;-77
2023/04/22 00:35:03;;;;;;;1.83;1.63;;;9.70;99.90;;;;;;5005520;28;20053;-77
2023/04/22 00:37:29;;;;;;;1.63;1.42;;;9.70;99.90;;;;;;5006627;28;20113;-76
2023/04/22 00:39:56;;;;;;;1.98;1.50;;;9.70;99.90;;;;;;5006120;28;20434;-77
2023/04/22 00:42:22;;;;;;;2.83;1.40;;;9.60;99.90;;;;;;5006256;28;20022;-77
2023/04/22 00:44:50;;;;;;;1.92;1.40;;;9.50;99.90;;;;;;5006226;28;20058;-76
2023/04/22 00:47:16;;;;;;;1.70;1.60;;;9.40;99.90;;;;;;5006811;28;20035;-77
2023/04/22 00:49:42;;;;;;;1.58;1.45;;;9.40;99.90;;;;;;5006147;28;20071;-76
2023/04/22 00:52:07;;;;;;;2.25;1.40;;;9.40;99.90;;;;;;5006052;28;20038;-76
2023/04/22 00:54:35;;;;;;;2.45;1.20;;;9.40;99.90;;;;;;5006258;28;20031;-77
2023/04/22 00:57:02;;;;;;;1.30;1.20;;;9.50;99.90;;;;;;5005085;28;20045;-77
2023/04/22 00:59:31;;;;;;;1.42;1.35;;;9.40;99.90;;;;;;5005949;28;20025;-77
2023/04/22 01:01:57;;;;;;;1.40;1.25;;;9.40;99.90;;;;;;5005663;28;20038;-77
2023/04/22 01:04:23;;;;;;;1.67;1.58;;;9.40;99.90;;;;;;5005672;28;20520;-76
2023/04/22 01:06:52;;;;;;;2.20;1.58;;;9.40;99.90;;;;;;5004946;28;20085;-77
2023/04/22 01:09:19;;;;;;;1.83;1.33;;;9.40;99.90;;;;;;5005185;28;20026;-77
2023/04/22 01:11:46;;;;;;;1.40;1.30;;;9.40;99.90;;;;;;5007429;28;20038;-76
2023/04/22 01:14:11;;;;;;;1.67;1.52;;;9.40;99.90;;;;;;5005865;28;20038;-77
2023/04/22 01:16:39;;;;;;;2.13;1.40;;;9.40;99.90;;;;;;5005807;28;20527;-77
2023/04/22 01:19:07;;;;;;;2.15;1.77;;;9.30;99.90;;;;;;5005296;28;20050;-77
2023/04/22 01:21:34;;;;;;;1.15;1.15;;;9.30;99.90;;;;;;5005487;28;20475;-77
2023/04/22 01:24:00;;;;;;;2.67;1.42;;;9.20;99.90;;;;;;5005674;28;20184;-76
2023/04/22 01:26:26;;;;;;;1.70;1.60;;;9.20;99.90;;;;;;5005802;28;20037;-76
2023/04/22 01:28:52;;;;;;;3.03;1.80;;;9.00;99.90;;;;;;5005497;28;20463;-76
2023/04/22 01:31:20;;;;;;;1.30;1.20;;;9.00;99.90;;;;;;5004850;28;20046;-77
2023/04/22 01:33:47;;;;;;;;;;;9.00;99.90;;;;;;5006254;28;20101;-76
2023/04/22 01:36:13;;;;;;;2.08;1.48;;;9.00;99.90;;;;;;5004991;28;20313;-77
2023/04/22 01:38:39;;;;;;;1.98;1.50;;;8.90;99.90;;;;;;5005135;28;20042;-77
2023/04/22 01:41:05;;;;;;;3.17;1.50;;;9.00;99.90;;;;;;5005873;28;20037;-75
2023/04/22 01:43:31;;;;;;;2.38;1.60;;;9.00;99.90;;;;;;5004243;28;20030;-77
2023/04/22 01:45:57;;;;;;;2.67;1.50;;;9.00;99.90;;;;;;5005638;28;20030;-76
2023/04/22 01:48:22;;;;;;;2.47;1.30;;;8.90;99.90;;;;;;5005246;28;20069;-76
2023/04/22 01:50:48;;;;;;;3.05;1.75;;;8.80;99.90;;;;;;5004840;28;20378;-77
2023/04/22 01:53:14;;;;;;;2.60;1.48;;;8.70;99.90;;;;;;5004913;28;20026;-77
2023/04/22 01:55:40;;;;;;;2.80;1.45;;;8.60;99.90;;;;;;5005049;28;20203;-77
2023/04/22 01:58:06;;;;;;;3.58;1.38;;;8.40;99.90;;;;;;5004725;28;20011;-77
2023/04/22 02:00:32;;;;;;;1.23;1.08;;;8.20;99.90;;;;;;5004776;28;20040;-77
2023/04/22 02:02:57;;;;;;;1.45;1.17;;;8.10;99.90;;;;;;5004655;28;20030;-80
2023/04/22 02:05:23;;;;;;;1.20;1.20;;;8.20;99.90;;;;;;5003301;28;20030;-77
2023/04/22 02:07:52;;;;;;;1.30;1.20;;;8.30;99.90;;;;;;5004836;28;20039;-76
2023/04/22 02:10:19;;;;;;;1.55;1.40;;;8.40;99.90;;;;;;5004351;28;20064;-76
2023/04/22 02:12:44;;;;;;;1.27;1.20;;;8.50;99.90;;;;;;5004827;28;20027;-76
2023/04/22 02:15:10;;;;;;;2.25;1.40;;;8.50;99.90;;;;;;5004830;28;20042;-76
2023/04/22 02:17:37;;;;;;;2.55;1.40;;;8.60;99.90;;;;;;5004190;28;20057;-77
2023/04/22 02:20:04;;;;;;;1.23;1.13;;;8.60;99.90;;;;;;5004451;28;20068;-77
2023/04/22 02:22:30;;;;;;;1.48;1.38;;;8.60;99.90;;;;;;5003980;28;20066;-77
2023/04/22 02:24:56;;;;;;;2.00;1.42;;;8.60;99.90;;;;;;5004755;28;20069;-77
2023/04/22 02:27:21;;;;;;;2.30;1.20;;;8.60;99.90;;;;;;5004569;28;20034;-77
2023/04/22 02:29:47;;;;;;;2.38;1.38;;;8.70;99.90;;;;;;5003956;28;20045;-77
2023/04/22 02:32:14;;;;;;;1.80;1.70;;;8.60;99.90;;;;;;5004498;28;20107;-75
2023/04/22 02:34:42;;;;;;;1.40;1.30;;;8.60;99.90;;;;;;5004609;28;20033;-77
2023/04/22 02:37:07;;;;;;;1.73;1.58;;;8.60;99.90;;;;;;5004054;28;20042;-77
2023/04/22 02:39:33;;;;;;;2.10;1.23;;;8.60;99.90;;;;;;5004414;28;20093;-77
2023/04/22 02:41:59;;;;;;;1.55;1.45;;;8.40;99.90;;;;;;5003950;28;20047;-76
2023/04/22 02:44:24;;;;;;;1.75;1.48;;;8.30;99.90;;;;;;5003806;28;20043;-77
2023/04/22 02:46:50;;;;;;;1.30;1.20;;;8.30;99.90;;;;;;5004658;28;20058;-77
2023/04/22 02:49:15;;;;;;;1.20;1.10;;;8.40;99.90;;;;;;5003920;28;20471;-77
2023/04/22 02:51:41;;;;;;;1.73;1.15;;;8.40;99.90;;;;;;5004062;28;20041;-77
2023/04/22 02:54:06;;;;;;;1.15;1.15;;;8.30;99.90;;;;;;5004135;28;20037;-77
2023/04/22 02:56:32;;;;;;;2.03;1.38;;;8.30;99.90;;;;;;5003504;28;20026;-77
2023/04/22 02:58:58;;;;;;;1.42;1.33;;;8.30;99.90;;;;;;5003311;28;20061;-76
2023/04/22 03:01:23;;;;;;;3.65;1.60;;;8.30;99.90;;;;;;5002072;28;20042;-77
2023/04/22 03:04:06;;;;;;;2.38;1.30;;;8.30;99.90;;;;;;5005532;28;20027;-76
2023/04/22 03:06:32;;;;;;;1.50;1.38;;;8.30;99.90;;;;;;5002874;28;20034;-75
2023/04/22 03:08:57;;;;;;;1.63;1.30;;;8.30;99.90;;;;;;5003503;28;20038;-76
2023/04/22 03:11:23;;;;;;;1.50;1.40;;;8.30;99.90;;;;;;5002993;28;20030;-76
2023/04/22 03:13:49;;;;;;;5.47;1.58;;;8.30;99.90;;;;;;5003429;28;20030;-77
2023/04/22 03:16:16;;;;;;;1.40;1.30;;;8.30;99.90;;;;;;5004050;28;20037;-77
2023/04/22 03:18:41;;;;;;;1.58;1.48;;;8.10;99.90;;;;;;5003584;28;20066;-76
2023/04/22 03:21:07;;;;;;;1.35;1.25;;;8.10;99.90;;;;;;5003687;28;20093;-77
2023/04/22 03:23:33;;;;;;;1.50;1.40;;;8.10;99.90;;;;;;5003478;28;20061;-77
2023/04/22 03:25:58;;;;;;;1.25;1.13;;;8.10;99.90;;;;;;5003233;28;20463;-76
2023/04/22 03:28:24;;;;;;;1.90;1.33;;;8.10;99.90;;;;;;5003402;28;20041;-77
2023/04/22 03:30:49;;;;;;;2.13;1.10;;;8.00;99.90;;;;;;5002575;28;20084;-78
2023/04/22 03:33:26;;;;;;;1.20;1.10;;;7.90;99.90;;;;;;5004247;28;20037;-77
2023/04/22 03:35:53;;;;;;;1.17;1.15;;;7.60;99.90;;;;;;5003709;28;20034;-77
2023/04/22 03:38:19;;;;;;;1.20;1.20;;;7.50;99.90;;;;;;5002873;28;20078;-77
2023/04/22 03:40:44;;;;;;;1.50;1.40;;;7.50;99.90;;;;;;5002770;28;20502;-76
2023/04/22 03:43:10;;;;;;;5.10;1.40;;;7.50;99.90;;;;;;5002526;28;20054;-77
2023/04/22 03:45:36;;;;;;;1.40;1.30;;;7.60;99.90;;;;;;5003170;28;20030;-76
2023/04/22 03:48:01;;;;;;;1.10;1.10;;;7.60;99.90;;;;;;5003105;28;20467;-77
2023/04/22 03:50:27;;;;;;;1.48;1.38;;;7.70;99.90;;;;;;5003256;28;20030;-76
2023/04/22 03:52:53;;;;;;;1.40;1.30;;;7.70;99.90;;;;;;5003083;28;20102;-77
2023/04/22 03:55:19;;;;;;;1.40;1.30;;;7.70;99.90;;;;;;5002581;28;20011;-78
2023/04/22 03:57:44;;;;;;;1.50;1.40;;;7.70;99.90;;;;;;5002615;28;20038;-78
2023/04/22 04:00:10;;;;;;;1.50;1.40;;;7.60;99.90;;;;;;5002231;28;20065;-77
2023/04/22 04:02:36;;;;;;;1.75;1.30;;;7.60;99.90;;;;;;5000743;28;20042;-77
2023/04/22 04:05:02;;;;;;;3.28;1.70;;;7.60;99.90;;;;;;5002279;28;20119;-77
2023/04/22 04:07:27;;;;;;;2.95;1.35;;;7.40;99.90;;;;;;5002273;28;20050;-77
2023/04/22 04:09:53;;;;;;;1.65;1.50;;;7.40;99.90;;;;;;5001897;28;20452;-78
2023/04/22 04:12:18;;;;;;;1.65;1.55;;;7.50;99.90;;;;;;5001922;28;20038;-76
2023/04/22 04:14:44;;;;;;;2.30;1.70;;;7.50;99.90;;;;;;5001650;28;20030;-77
2023/04/22 04:17:12;;;;;;;1.85;1.38;;;7.50;99.90;;;;;;5002081;28;20033;-77
2023/04/22 04:19:38;;;;;;;;;;;7.50;99.90;;;;;;5001869;28;20031;-77
2023/04/22 04:22:03;;;;;;;2.00;1.50;;;7.60;99.90;;;;;;5002907;28;19910;-78
2023/04/22 04:24:29;;;;;;;1.52;1.40;;;7.60;99.90;;;;;;5002387;28;20051;-77
2023/04/22 04:26:56;;;;;;;1.60;1.50;;;7.60;99.90;;;;;;5004024;28;20062;-77
2023/04/22 04:29:22;;;;;;;1.40;1.27;;;7.60;99.90;;;;;;5003721;28;20034;-76
2023/04/22 04:31:48;;;;;;;2.63;1.60;;;7.50;99.90;;;;;;5003830;28;20040;-77
2023/04/22 04:34:14;;;;;;;1.60;1.50;;;7.60;99.90;;;;;;5005530;28;20027;-77
2023/04/22 04:36:40;;;;;;;1.65;1.50;;;7.60;99.90;;;;;;5006618;28;20038;-77
2023/04/22 04:39:08;;;;;;;1.45;1.35;;;7.50;99.90;;;;;;5007538;28;20121;-77
2023/04/22 04:41:34;;;;;;;1.33;1.30;;;7.40;99.90;;;;;;5004020;28;20042;-78
2023/04/22 04:44:00;;;;;;;1.55;1.20;;;7.40;99.90;;;;;;5002194;28;20030;-77
2023/04/22 04:46:28;;;;;;;1.85;1.40;;;7.50;99.90;;;;;;5001607;28;20018;-78
2023/04/22 04:48:54;;;;;;;1.40;1.30;;;7.40;99.90;;;;;;5001647;28;20047;-78
2023/04/22 04:51:19;;;;;;;1.50;1.40;;;7.30;99.90;;;;;;5002862;28;20026;-78
2023/04/22 04:53:45;;;;;;;1.35;1.35;;;7.20;99.90;;;;;;5001736;28;20035;-78
2023/04/22 04:56:11;;;;;;;1.40;1.30;;;7.00;99.90;;;;;;5002198;28;20034;-77
2023/04/22 04:58:37;;;;;;;1.60;1.50;;;7.10;99.90;;;;;;5001419;28;20038;-76
2023/04/22 05:01:02;;;;;;;2.85;1.80;;;7.20;99.90;;;;;;5001171;28;20046;-78
2023/04/22 05:03:28;;;;;;;1.90;1.60;;;7.20;99.90;;;;;;5002532;28;20548;-78
2023/04/22 05:05:54;;;;;;;4.63;1.80;;;7.40;99.90;;;;;;5005030;28;20045;-78
2023/04/22 05:08:19;;;;;;;1.50;1.40;;;7.40;99.90;;;;;;5006353;28;20062;-77
2023/04/22 05:10:45;;;;;;;1.95;1.58;;;7.50;99.90;;;;;;5008414;28;20023;-77
2023/04/22 05:13:10;;;;;;;1.83;1.73;;;7.60;99.90;;;;;;5006704;28;20030;-77
2023/04/22 05:15:36;;;;;;;4.35;2.17;;;7.70;99.90;;;;;;5005485;28;20419;-77
2023/04/22 05:18:02;;;;;;;1.60;1.50;;;7.80;99.90;;;;;;5005582;28;20407;-78
2023/04/22 05:20:27;;;;;;;1.80;1.70;;;7.90;99.90;;;;;;5005321;28;20092;-77
2023/04/22 05:22:53;;;;;;;1.70;1.45;;;8.00;99.90;;;;;;5006110;28;20073;-78
2023/04/22 05:25:18;;;;;;;1.83;1.70;;;8.20;99.90;;;;;;5005549;28;20038;-78
2023/04/22 05:27:44;;;;;;;1.70;1.60;;;8.30;99.90;;;;;;5005319;28;20082;-77
2023/04/22 05:30:10;;;;;;;1.83;1.73;;;8.40;99.90;;;;;;5005060;28;20040;-78
2023/04/22 05:32:35;;;;;;;3.15;1.80;;;8.50;99.90;;;;;;5004731;28;20058;-78
2023/04/22 05:35:02;;;;;;;3.42;1.90;;;8.50;99.90;;;;;;5005438;28;20085;-78
2023/04/22 05:37:27;;;;;;;2.33;1.73;;;8.60;99.90;;;;;;5005707;28;20089;-77
2023/04/22 05:39:56;;;;;;;2.30;2.08;;;8.80;99.90;;;;;;4988345;28;20108;-78
2023/04/22 05:42:22;;;;;;;2.50;1.80;;;9.00;99.90;;;;;;5004924;28;20038;-77
2023/04/22 05:44:47;;;;;;;3.20;2.03;;;9.20;99.90;;;;;;5006038;28;20038;-78
2023/04/22 05:47:13;;;;;;;4.57;2.63;;;9.20;99.90;;;;;;5005242;28;20100;-78
2023/04/22 05:49:38;;;;;;;4.68;2.42;;;9.40;99.90;;;;;;5004746;28;20066;-77
2023/04/22 05:52:04;;;;;;;4.35;2.53;;;9.40;99.90;;;;;;5003846;28;20121;-78
2023/04/22 05:54:29;;;;;;;2.17;1.92;;;9.60;99.90;;;;;;5004201;28;20057;-77
2023/04/22 05:56:55;;;;;;;2.70;2.00;;;9.70;99.90;;;;;;5004988;28;20038;-77
2023/04/22 05:59:21;;;;;;;2.35;1.85;;;9.80;99.90;;;;;;5004456;28;20022;-78
2023/04/22 06:01:47;;;;;;;3.13;2.00;;;9.90;99.90;;;;;;5003750;28;20196;-78
2023/04/22 06:04:12;;;;;;;2.28;2.10;;;10.10;99.90;;;;;;5003939;28;20030;-77
2023/04/22 06:06:38;;;;;;;3.95;2.40;;;10.20;99.90;;;;;;5004102;28;20065;-78
2023/04/22 06:09:04;;;;;;;3.28;2.15;;;10.20;99.90;;;;;;5004460;28;20030;-77
2023/04/22 06:11:33;;;;;;;2.40;2.20;;;10.30;99.90;;;;;;5005830;28;20030;-77
2023/04/22 06:13:59;;;;;;;2.45;2.20;;;10.30;99.90;;;;;;5005398;28;20355;-77
2023/04/22 06:16:26;;;;;;;2.40;2.20;;;10.30;99.90;;;;;;5003897;28;20052;-78
2023/04/22 06:18:51;;;;;;;2.25;2.05;;;10.40;99.90;;;;;;5004700;28;20042;-77
2023/04/22 06:21:17;;;;;;;2.97;2.40;;;10.50;99.90;;;;;;5005387;28;20065;-78
2023/04/22 06:23:42;;;;;;;2.13;1.92;;;10.50;99.90;;;;;;5005969;28;20050;-78
2023/04/22 06:26:08;;;;;;;2.38;1.88;;;10.50;99.90;;;;;;5005730;28;20030;-78
2023/04/22 06:28:34;;;;;;;3.22;2.33;;;10.70;99.90;;;;;;5006452;28;20451;-76
2023/04/22 06:31:01;;;;;;;2.22;2.03;;;10.80;99.90;;;;;;5004292;28;20125;-78
2023/04/22 06:33:26;;;;;;;2.88;2.25;;;10.90;99.90;;;;;;5005022;28;20027;-77
2023/04/22 06:35:52;;;;;;;2.40;2.15;;;11.00;99.90;;;;;;5005350;28;20041;-77
2023/04/22 06:38:17;;;;;;;2.97;2.30;;;11.00;99.90;;;;;;5004448;28;20035;-77
2023/04/22 06:40:43;;;;;;;2.40;2.00;;;11.10;99.90;;;;;;5004417;28;20030;-78
2023/04/22 06:43:08;;;;;;;2.78;1.95;;;11.30;99.90;;;;;;5003640;28;20058;-77
2023/04/22 06:45:34;;;;;;;2.40;2.20;;;11.50;99.90;;;;;;5002816;28;20030;-79
2023/04/22 06:48:00;;;;;;;3.13;2.20;;;11.60;99.90;;;;;;5003801;28;20475;-77
2023/04/22 06:50:25;;;;;;;2.03;1.92;;;11.80;99.90;;;;;;5003949;28;20035;-78
2023/04/22 06:52:51;;;;;;;2.90;2.25;;;11.90;99.90;;;;;;5003539;28;20036;-78
2023/04/22 06:55:17;;;;;;;4.32;2.70;;;12.00;99.90;;;;;;5002773;28;20026;-77
2023/04/22 06:57:42;;;;;;;3.10;2.60;;;12.20;99.90;;;;;;5002933;28;20038;-77
2023/04/22 07:00:08;;;;;;;3.83;2.40;;;12.30;99.90;;;;;;5002846;28;20026;-77
2023/04/22 07:02:34;;;;;;;3.10;2.67;;;12.50;99.90;;;;;;5003487;28;20069;-78
2023/04/22 07:05:00;;;;;;;2.38;2.17;;;12.50;99.90;;;;;;5003236;28;20034;-78
2023/04/22 07:07:25;;;;;;;2.80;2.35;;;12.60;99.90;;;;;;5002968;28;20038;-77
2023/04/22 07:09:51;;;;;;;2.78;2.33;;;12.60;99.90;;;;;;5003807;28;20034;-78
2023/04/22 07:12:16;;;;;;;4.38;2.40;;;12.80;99.90;;;;;;5003330;28;20073;-78
2023/04/22 07:14:45;;;;;;;2.50;2.20;;;12.90;99.90;;;;;;5003327;28;20061;-78
2023/04/22 07:17:11;;;;;;;2.33;2.13;;;13.10;99.90;;;;;;5003112;28;20065;-76
2023/04/22 07:19:37;;;;;;;3.20;2.45;;;13.20;99.90;;;;;;5002974;28;20051;-78
2023/04/22 07:22:05;;;;;;;2.58;2.22;;;13.30;99.90;;;;;;5002561;28;20073;-78
2023/04/22 07:24:31;;;;;;;2.92;2.08;;;13.40;99.90;;;;;;5003188;28;20541;-78
2023/04/22 07:26:57;;;;;;;3.08;2.47;;;13.50;99.90;;;;;;5002837;28;20090;-78
2023/04/22 07:29:22;;;;;;;2.58;2.20;;;13.60;99.90;;;;;;5002102;28;20050;-78
2023/04/22 07:31:48;;;;;;;5.07;2.25;;;13.80;99.90;;;;;;5001863;28;20038;-78
2023/04/22 07:34:14;;;;;;;2.45;2.25;;;13.80;99.90;;;;;;5002835;28;20054;-77
2023/04/22 07:36:40;;;;;;;2.80;2.40;;;13.80;99.90;;;;;;5002497;28;20485;-79
2023/04/22 07:39:06;;;;;;;3.38;2.38;;;13.90;99.90;;;;;;5002250;28;20049;-78
2023/04/22 07:41:32;;;;;;;2.65;2.20;;;13.90;99.90;;;;;;4985336;28;20395;-77
2023/04/22 07:43:58;;;;;;;2.78;2.58;;;14.00;99.90;;;;;;5002595;28;20073;-78
2023/04/22 07:46:24;;;;;;;3.90;2.30;;;14.20;99.90;;;;;;5003099;28;20026;-79
2023/04/22 07:48:49;;;;;;;2.80;2.22;;;14.30;99.90;;;;;;5002500;28;20037;-79
2023/04/22 07:51:15;;;;;;;2.08;1.95;;;14.50;99.90;;;;;;5002510;28;20367;-79
2023/04/22 07:53:40;;;;;;;3.55;2.40;;;14.70;99.90;;;;;;5002118;28;20041;-79
2023/04/22 07:56:06;;;;;;;2.17;1.98;;;15.00;99.90;;;;;;5002435;28;20034;-78
2023/04/22 07:58:31;;;;;;;2.97;2.67;;;15.30;99.90;;;;;;5000966;28;20030;-79
2023/04/22 08:00:57;;;;;;;4.03;2.28;;;15.40;99.90;;;;;;5001820;28;20061;-78
2023/04/22 08:03:23;;;;;;;2.72;2.20;;;15.40;99.90;;;;;;5004910;28;20050;-79
2023/04/22 08:05:48;;;;;;;3.60;2.10;;;15.50;99.90;;;;;;5003557;28;20027;-79
2023/04/22 08:08:14;;;;;;;2.28;1.83;;;15.70;99.90;;;;;;5002085;28;20030;-79
2023/04/22 08:10:40;;;;;;;2.42;2.13;;;15.80;99.90;;;;;;5003005;28;20031;-78
2023/04/22 08:13:05;;;;;;;2.25;1.95;;;15.90;99.90;;;;;;5003062;28;20473;-79
2023/04/22 08:15:31;;;;;;;1.90;1.80;;;16.20;99.90;;;;;;5003738;28;20537;-79
2023/04/22 08:17:56;;;;;;;2.05;1.80;;;16.50;99.90;;;;;;5002353;28;20090;-79
2023/04/22 08:20:22;;;;;;;2.28;1.95;;;16.40;99.90;;;;;;5003155;28;20014;-80
2023/04/22 08:22:50;;;;;;;5.03;1.83;;;16.40;99.90;;;;;;5002389;28;20058;-79
2023/04/22 08:25:15;;;;;;;3.38;1.92;;;16.60;99.90;;;;;;5003088;28;20038;-80
2023/04/22 08:27:41;;;;;;;1.88;1.73;;;16.70;99.90;;;;;;5002039;28;20043;-78
2023/04/22 08:30:07;;;;;;;1.65;1.50;;;16.80;99.90;;;;;;5002531;28;20419;-80
2023/04/22 08:32:33;;;;;;;2.97;1.95;;;16.50;99.90;;;;;;5001692;28;20034;-79
2023/04/22 08:34:58;;;;;;;1.85;1.75;;;16.40;99.90;;;;;;5001941;28;20038;-76
2023/04/22 08:37:24;;;;;;;2.00;1.73;;;16.70;99.90;;;;;;5002071;28;20034;-76
2023/04/22 08:39:50;;;;;;;2.03;1.80;;;16.80;99.90;;;;;;5004376;28;20042;-77
2023/04/22 08:42:18;;;;;;;2.92;2.08;;;16.80;99.90;;;;;;5007723;28;20030;-76
2023/04/22 08:44:44;;;;;;;1.85;1.45;;;16.70;99.90;;;;;;5006507;28;20510;-76
2023/04/22 08:47:11;;;;;;;3.53;1.58;;;16.80;99.90;;;;;;5005229;28;20034;-76
2023/04/22 08:49:37;;;;;;;2.07;1.77;;;17.20;99.90;;;;;;5005889;28;20030;-76
2023/04/22 08:52:03;;;;;;;3.08;1.73;;;17.40;99.90;;;;;;5006026;28;20348;-76
2023/04/22 08:54:28;;;;;;;1.48;1.38;;;17.60;99.90;;;;;;5005809;28;20065;-75
2023/04/22 08:56:55;;;;;;;1.70;1.60;;;17.50;99.90;;;;;;5006310;28;20497;-75
2023/04/22 08:59:22;;;;;;;1.65;1.48;;;17.70;99.90;;;;;;5005859;28;20088;-76
2023/04/22 09:01:52;;;;;;;2.75;1.40;;;17.40;99.90;;;;;;5004083;28;20047;-76
2023/04/22 09:04:18;;;;;;;1.70;1.42;;;17.10;99.90;;;;;;5005899;28;20074;-77
2023/04/22 09:06:44;;;;;;;3.53;1.52;;;17.20;99.90;;;;;;5005310;28;20042;-77
2023/04/22 09:09:10;;;;;;;1.55;1.42;;;17.60;99.90;;;;;;5005782;28;20545;-77
2023/04/22 09:11:36;;;;;;;1.42;1.33;;;18.10;99.90;;;;;;5005934;28;20034;-76
2023/04/22 09:14:03;;;;;;;1.80;1.42;;;17.90;99.20;;;;;;5005075;28;20026;-77
2023/04/22 09:16:32;;;;;;;1.42;1.30;;;17.90;99.90;;;;;;5005223;28;20041;-77
2023/04/22 09:18:58;;;;;;;1.83;1.50;;;18.10;99.90;;;;;;5005407;28;20034;-76
2023/04/22 09:21:27;;;;;;;1.48;1.38;;;18.40;99.20;;;;;;5004606;28;20041;-76
2023/04/22 09:23:55;;;;;;;2.20;1.60;;;17.90;90.50;;;;;;5004794;28;20082;-75
2023/04/22 09:26:25;;;;;;;1.75;1.30;;;17.80;97.70;;;;;;5004064;28;20045;-77
2023/04/22 09:28:59;;;;;;;1.27;1.17;;;17.80;99.90;;;;;;5003946;28;20030;-76
2023/04/22 09:31:26;;;;;;;2.72;1.50;;;17.90;98.60;;;;;;5003283;28;20065;-76
2023/04/22 09:33:55;;;;;;;1.37;1.27;;;17.90;98.90;;;;;;5004242;28;20045;-77
2023/04/22 09:36:26;;;;;;;1.40;1.30;;;17.80;95.20;;;;;;5003373;28;20038;-77
2023/04/22 09:38:58;;;;;;;1.95;1.67;;;17.80;91.40;;;;;;5004918;28;20498;-77
2023/04/22 09:41:50;;;;;;;1.67;1.10;;;17.90;80.80;;;;;;5005797;28;20035;-76
2023/04/22 09:44:19;;;;;;;1.85;1.25;;;18.00;82.70;;;;;;5003668;28;20134;-77
2023/04/22 09:46:48;;;;;;;1.27;1.17;;;18.10;82.20;;;;;;5003717;28;20096;-77
2023/04/22 09:49:15;;;;;;;1.27;1.20;;;18.10;76.90;;;;;;5003687;28;20031;-77
2023/04/22 09:51:41;;;;;;;1.33;1.23;;;18.30;80.00;;;;;;5004827;28;20033;-77
2023/04/22 09:54:09;;;;;;;1.30;1.20;;;18.30;91.40;;;;;;5005436;28;20518;-78
2023/04/22 09:56:40;;;;;;;1.00;1.00;;;18.30;83.30;;;;;;5004586;28;20042;-77
2023/04/22 09:59:05;;;;;;;1.40;1.20;;;18.20;84.40;;;;;;5004274;28;20034;-78
2023/04/22 10:01:39;;;;;;;1.33;1.23;;;18.20;90.30;;;;;;5004262;28;20042;-78
2023/04/22 10:04:08;;;;;;;1.40;1.30;;;18.30;89.40;;;;;;5005367;28;20073;-77
2023/04/22 10:06:34;;;;;;;1.33;1.17;;;18.40;94.60;;;;;;5004717;28;20042;-77
2023/04/22 10:09:00;;;;;;;1.35;1.25;;;18.60;92.10;;;;;;5003696;28;20039;-77
2023/04/22 10:11:27;;;;;;;1.13;1.10;;;18.80;91.40;;;;;;5004741;28;20022;-77
2023/04/22 10:13:52;;;;;;;1.23;1.10;;;18.80;81.50;;;;;;5004206;28;20037;-77
2023/04/22 10:16:21;;;;;;;1.63;1.52;;;18.90;91.40;;;;;;5004683;28;20065;-78
2023/04/22 10:18:48;;;;;;;3.47;1.40;;;19.00;87.40;;;;;;5004744;28;20050;-78
2023/04/22 10:21:13;;;;;;;1.65;1.13;;;19.10;91.30;;;;;;5005051;28;20014;-77
2023/04/22 10:23:45;;;;;;;3.20;1.38;;;19.10;79.20;;;;;;5004577;28;20046;-77
2023/04/22 10:26:11;;;;;;;1.50;1.23;;;19.10;79.30;;;;;;5004676;28;20034;-78
2023/04/22 10:28:43;;;;;;;1.30;1.20;;;19.30;97.00;;;;;;5004281;28;20162;-76
2023/04/22 10:31:22;;;;;;;1.27;1.17;;;19.40;81.30;;;;;;5003378;28;20058;-77
2023/04/22 10:33:48;;;;;;;1.00;1.00;;;19.40;76.70;;;;;;5004689;28;20030;-78
2023/04/22 10:36:13;;;;;;;1.25;1.15;;;19.30;68.80;;;;;;5003837;28;20352;-78
2023/04/22 10:38:59;;;;;;;0.90;0.90;;;19.30;81.80;;;;;;5004811;28;20449;-79
2023/04/22 10:41:34;;;;;;;2.40;1.02;;;19.50;71.10;;;;;;4994157;28;20061;-79
2023/04/22 10:44:01;;;;;;;1.20;0.90;;;19.40;64.00;;;;;;5003577;28;20125;-78
2023/04/22 10:46:29;;;;;;;0.80;0.80;;;19.50;66.40;;;;;;5003491;28;20052;-78
2023/04/22 10:49:21;;;;;;;0.90;0.90;;;19.50;59.70;;;;;;5004008;28;20347;-78
2023/04/22 10:51:49;;;;;;;6.60;1.20;;;19.50;75.40;;;;;;5003703;28;20042;-78
2023/04/22 10:54:36;;;;;;;;;;;19.70;77.10;;;;;;5003996;28;20042;-78
2023/04/22 10:57:02;;;;;;;1.10;1.00;;;19.80;72.90;;;;;;5003283;28;19996;-78
2023/04/22 10:59:28;;;;;;;1.05;1.02;;;19.90;66.90;;;;;;5002831;28;20050;-78
2023/04/22 11:01:54;;;;;;;1.33;1.23;;;19.70;73.40;;;;;;5002464;28;20093;-78
2023/04/22 11:04:22;;;;;;;1.33;1.10;;;19.60;73.80;;;;;;5002995;28;20034;-79
2023/04/22 11:07:16;;;;;;;1.40;1.20;;;19.60;80.10;;;;;;5002429;28;20091;-79
2023/04/22 11:10:05;;;;;;;1.00;0.80;;;19.50;84.50;;;;;;5003186;28;20113;-79
2023/04/22 11:12:37;;;;;;;1.10;1.00;;;19.40;68.60;;;;;;5003152;28;20026;-78
2023/04/22 11:15:15;;;;;;;0.90;0.90;;;19.40;80.90;;;;;;5003271;28;20034;-78
2023/04/22 11:17:50;;;;;;;0.95;0.95;;;19.50;65.80;;;;;;5007857;28;20053;-78
2023/04/22 11:20:17;;;;;;;1.00;1.00;;;19.60;59.50;;;;;;5002942;28;20118;-78
2023/04/22 11:22:45;;;;;;;1.55;1.00;;;19.70;71.80;;;;;;5002071;28;20026;-78
2023/04/22 11:25:11;;;;;;;1.92;1.00;;;19.70;61.60;;;;;;5003363;28;20471;-78
2023/04/22 11:27:38;;;;;;;2.13;1.08;;;19.80;62.90;;;;;;5002563;28;20026;-78
2023/04/22 11:30:13;;;;;;;1.00;0.90;;;20.10;64.00;;;;;;5002067;28;20061;-79
2023/04/22 11:32:41;;;;;;;1.08;0.90;;;20.50;70.20;;;;;;5001950;28;20398;-79
2023/04/22 11:35:16;;;;;;;0.88;0.88;;;20.60;64.60;;;;;;5002546;28;20061;-78
2023/04/22 11:37:48;;;;;;;0.63;0.63;;;20.40;59.60;;;;;;5003055;28;20081;-78
2023/04/22 11:40:20;;;;;;;1.05;1.00;;;20.50;61.60;;;;;;5003061;28;20034;-78
2023/04/22 11:42:47;;;;;;;2.13;1.10;;;20.50;63.30;;;;;;5002056;28;20026;-78
2023/04/22 11:45:13;;;;;;;0.80;0.80;;;20.70;78.10;;;;;;5002655;28;20525;-80
2023/04/22 11:47:39;;;;;;;0.70;0.70;;;20.40;61.70;;;;;;5002297;28;20069;-79
2023/04/22 11:50:11;;;;;;;0.80;0.80;;;20.50;60.00;;;;;;5003128;28;20038;-80
2023/04/22 11:53:00;;;;;;;0.88;0.88;;;20.90;59.00;;;;;;5002464;28;20026;-80
2023/04/22 11:55:31;;;;;;;0.85;0.85;;;20.90;53.70;;;;;;5002177;28;20030;-80
2023/04/22 11:58:06;;;;;;;1.00;0.90;;;21.00;48.20;;;;;;5002084;28;20229;-80
2023/04/22 12:00:42;;;;;;;0.80;0.80;;;21.10;51.90;;;;;;5001752;28;20042;-80
2023/04/22 12:03:12;;;;;;;0.98;0.90;;;21.20;53.00;;;;;;5002042;28;20065;-80
2023/04/22 12:06:07;;;;;;;0.80;0.80;;;21.40;59.70;;;;;;5001573;28;20027;-80
2023/04/22 12:08:35;;;;;;;0.90;0.90;;;20.90;54.40;;;;;;4989883;28;20051;-80
2023/04/22 12:11:03;;;;;;;0.98;0.88;;;20.70;57.10;;;;;;5002292;28;20035;-80
2023/04/22 12:13:36;;;;;;;1.10;1.10;;;20.70;60.40;;;;;;5003857;28;20419;-79
2023/04/22 12:16:03;;;;;;;0.77;0.77;;;20.70;65.60;;;;;;5008923;28;20034;-80
2023/04/22 12:18:29;;;;;;;0.90;0.90;;;20.50;54.60;;;;;;5008751;28;20045;-80
2023/04/22 12:21:07;;;;;;;1.30;1.00;;;20.40;52.80;;;;;;5009251;28;20054;-80
2023/04/22 12:23:47;;;;;;;0.93;0.93;;;20.30;57.70;;;;;;5008464;28;20046;-79
2023/04/22 12:26:14;;;;;;;1.00;0.85;;;20.30;55.20;;;;;;5008423;28;20034;-80
2023/04/22 12:28:41;;;;;;;0.85;0.85;;;20.50;55.80;;;;;;5008020;28;20057;-80
2023/04/22 12:31:08;;;;;;;1.17;1.08;;;20.70;55.40;;;;;;5006948;28;20467;-80
2023/04/22 12:33:34;;;;;;;1.67;1.05;;;20.70;53.10;;;;;;5008141;28;20034;-80
2023/04/22 12:36:00;;;;;;;1.45;0.90;;;20.80;59.30;;;;;;5008625;28;20026;-80
2023/04/22 12:38:26;;;;;;;1.17;1.00;;;21.00;50.30;;;;;;5008441;28;20046;-80
2023/04/22 12:40:52;;;;;;;0.98;0.98;;;21.20;56.20;;;;;;5008277;28;20031;-80
2023/04/22 12:43:17;;;;;;;1.10;1.00;;;21.20;51.80;;;;;;5008571;28;20049;-80
2023/04/22 12:45:43;;;;;;;1.40;0.90;;;21.40;54.00;;;;;;5007987;28;20030;-80
2023/04/22 12:48:09;;;;;;;0.80;0.80;;;21.30;50.30;;;;;;5008470;28;20026;-80
2023/04/22 12:50:35;;;;;;;1.10;0.90;;;21.40;44.80;;;;;;5007561;28;20049;-80
2023/04/22 12:53:03;;;;;;;1.20;1.20;;;21.50;46.20;;;;;;5007645;28;20111;-80